< Typhoon 196210 1962 Season Typhoon 196212 >
Typhoon 196211 (PATSY)
General InformationTrack Information on Google Maps || Disaster Info.ResourceGoogle EarthGE AnimationAtom FeedGeoJSON
Detalied Best Track (Time Zone = UTC)
Year Month Day Hour Lat. Long. Pressure (hPa) Wind (kt) Class Image Chart
1962 8 5 00 9.7 141.7 1008 0 2 -- Chart
1962 8 5 06 9.4 140.9 1007 0 2 -- Chart
1962 8 5 12 9.3 139.9 1008 0 2 -- Chart
1962 8 5 18 9.5 138.7 1006 0 2 -- Chart
1962 8 6 00 9.7 137.2 1005 0 2 -- Chart
1962 8 6 06 10.0 135.7 1004 0 2 -- Chart
1962 8 6 12 10.2 134.4 1004 0 2 -- Chart
1962 8 6 18 10.4 132.9 1002 0 2 -- Chart
1962 8 7 00 10.7 131.2 1000 0 9 -- Chart
1962 8 7 06 11.2 128.9 1000 0 9 -- Chart
1962 8 7 12 11.7 126.9 995 0 9 -- Chart
1962 8 7 18 11.8 125.3 995 0 9 -- Chart
1962 8 8 00 11.9 124.1 990 0 9 -- Chart
1962 8 8 06 12.3 122.7 990 0 9 -- Chart
1962 8 8 12 13.3 121.2 990 0 9 -- Chart
1962 8 8 18 13.7 118.8 990 0 9 -- Chart
1962 8 9 00 14.3 117.1 990 0 9 -- Chart
1962 8 9 06 14.8 116.1 988 0 9 -- Chart
1962 8 9 12 15.5 114.6 988 0 9 -- Chart
1962 8 9 18 16.3 113.3 988 0 9 -- Chart
1962 8 10 00 17.6 112.4 988 0 9 -- Chart
1962 8 10 06 18.6 111.4 990 0 9 -- Chart
1962 8 10 12 19.7 110.5 990 0 9 -- Chart
1962 8 10 18 20.5 109.6 992 0 9 -- Chart
1962 8 11 00 21.7 108.6 992 0 9 -- Chart
1962 8 11 06 21.1 107.5 994 0 9 -- Chart
1962 8 11 12 22.3 106.6 996 0 9 -- Chart
1962 8 11 18 23.4 105.5 1000 0 2 -- Chart
1962 8 12 00 23.7 103.8 1004 0 2 -- Chart
Japan Meteorological Agency Best Track Data | Correction Date : 1991-03-28
< Typhoon 196210 1962 Season Typhoon 196212 >

Help